createdAt,value
2019-05-12T00:00:50.017Z,0.00
2019-05-12T00:01:28.986Z,0.00
2019-05-12T00:02:28.967Z,0.00
2019-05-12T00:03:28.947Z,0.00
2019-05-12T00:04:28.925Z,0.00
2019-05-12T00:05:28.893Z,0.00
2019-05-12T00:06:49.881Z,0.00
2019-05-12T00:07:28.851Z,0.00
2019-05-12T00:08:28.832Z,0.00
2019-05-12T00:09:28.810Z,0.00
2019-05-12T00:10:28.784Z,0.00
2019-05-12T00:11:28.939Z,0.00
2019-05-12T00:12:49.738Z,0.00
2019-05-12T00:13:28.710Z,0.00
2019-05-12T00:14:28.685Z,0.00
2019-05-12T00:15:28.666Z,0.00
2019-05-12T00:16:28.649Z,0.00
2019-05-12T00:17:28.615Z,0.00
2019-05-12T00:18:49.593Z,0.00
2019-05-12T00:19:28.734Z,0.00
2019-05-12T00:20:28.678Z,0.00
2019-05-12T00:21:28.544Z,0.00
2019-05-12T00:22:28.757Z,0.00
2019-05-12T00:23:31.085Z,0.00
2019-05-12T00:24:49.460Z,0.00
2019-05-12T00:25:28.502Z,0.00
2019-05-12T00:26:28.454Z,0.00
2019-05-12T00:27:28.512Z,0.00
2019-05-12T00:28:28.526Z,0.00
2019-05-12T00:29:28.793Z,0.00
2019-05-12T00:30:49.316Z,0.00
2019-05-12T00:31:28.292Z,0.00
2019-05-12T00:32:28.297Z,0.00
2019-05-12T00:33:28.411Z,0.00
2019-05-12T00:34:28.876Z,0.00
2019-05-12T00:35:28.587Z,0.00
2019-05-12T00:36:49.205Z,0.00
2019-05-12T00:37:28.837Z,0.00
2019-05-12T00:38:28.125Z,0.00
2019-05-12T00:39:28.099Z,0.00
2019-05-12T00:40:28.171Z,0.00
2019-05-12T00:41:28.448Z,0.00
2019-05-12T00:42:49.029Z,0.00
2019-05-12T00:43:28.318Z,0.00
2019-05-12T00:44:28.532Z,0.00
2019-05-12T00:45:29.165Z,0.00
2019-05-12T00:46:28.017Z,0.00
2019-05-12T00:47:28.108Z,0.00
2019-05-12T00:48:48.890Z,0.00
2019-05-12T00:49:28.921Z,0.00
2019-05-12T00:50:28.825Z,0.00
2019-05-12T00:51:28.862Z,0.00
2019-05-12T00:52:28.186Z,0.00
2019-05-12T00:53:37.222Z,0.00
2019-05-12T00:54:48.746Z,0.00
2019-05-12T00:55:28.832Z,0.00
2019-05-12T00:56:28.374Z,0.00
2019-05-12T00:57:28.676Z,0.00
2019-05-12T00:58:27.905Z,0.00
2019-05-12T00:59:28.012Z,0.00
2019-05-12T01:00:48.602Z,0.00
2019-05-12T01:01:28.610Z,0.00
2019-05-12T01:02:28.686Z,0.00
2019-05-12T01:03:28.057Z,0.00
2019-05-12T01:04:29.199Z,0.00
2019-05-12T01:05:29.414Z,0.00
2019-05-12T01:06:49.053Z,0.00
2019-05-12T01:07:27.837Z,0.00
2019-05-12T01:08:27.997Z,0.00
2019-05-12T01:09:28.175Z,0.00
2019-05-12T01:10:28.653Z,0.00
2019-05-12T01:11:28.598Z,0.00
2019-05-12T01:12:48.602Z,0.00
2019-05-12T01:13:27.931Z,0.00
2019-05-12T01:14:27.868Z,0.00
2019-05-12T01:15:28.730Z,0.00
2019-05-12T01:16:28.819Z,0.00
2019-05-12T01:17:28.187Z,0.00
2019-05-12T01:18:48.174Z,0.00
2019-05-12T01:19:28.849Z,0.00
2019-05-12T01:20:28.400Z,0.00
2019-05-12T01:21:28.763Z,0.00
2019-05-12T01:22:27.746Z,0.00
2019-05-12T01:23:28.054Z,0.00
2019-05-12T01:24:48.379Z,0.00
2019-05-12T01:25:29.115Z,0.00
2019-05-12T01:26:28.440Z,0.00
2019-05-12T01:27:28.726Z,0.00
2019-05-12T01:28:27.831Z,0.00
2019-05-12T01:29:28.182Z,0.00
2019-05-12T01:30:48.033Z,0.00
2019-05-12T01:31:28.566Z,0.00
2019-05-12T01:32:28.735Z,0.00
2019-05-12T01:33:27.685Z,0.00
2019-05-12T01:34:27.810Z,0.00
2019-05-12T01:35:28.252Z,0.00
2019-05-12T01:36:48.317Z,0.00
2019-05-12T01:37:28.032Z,0.00
2019-05-12T01:38:28.781Z,0.00
2019-05-12T01:39:27.717Z,0.00
2019-05-12T01:40:28.518Z,0.00
2019-05-12T01:41:28.689Z,0.00
2019-05-12T01:42:48.401Z,0.00
2019-05-12T01:43:27.768Z,0.00
2019-05-12T01:44:28.603Z,0.00
2019-05-12T01:45:28.883Z,0.00
2019-05-12T01:46:28.741Z,0.00
2019-05-12T01:47:28.919Z,0.00
2019-05-12T01:48:48.373Z,0.00
2019-05-12T01:49:28.866Z,0.00
2019-05-12T01:50:28.296Z,0.00
2019-05-12T01:51:28.399Z,0.00
2019-05-12T01:52:28.405Z,0.00
2019-05-12T01:53:28.537Z,0.00
2019-05-12T01:54:48.317Z,0.00
2019-05-12T01:55:28.071Z,0.00
2019-05-12T01:56:28.300Z,0.00
2019-05-12T01:57:26.238Z,0.00
2019-05-12T01:58:27.817Z,0.00
2019-05-12T01:59:26.196Z,0.00
2019-05-12T02:00:48.282Z,0.00
2019-05-12T02:01:28.084Z,0.00
2019-05-12T02:02:28.425Z,0.00
2019-05-12T02:03:28.221Z,0.00
2019-05-12T02:04:28.181Z,0.00
2019-05-12T02:05:27.979Z,0.00
2019-05-12T02:06:48.581Z,0.00
2019-05-12T02:07:27.893Z,0.00
2019-05-12T02:08:27.865Z,0.00
2019-05-12T02:09:27.915Z,0.00
2019-05-12T02:10:28.297Z,0.00
2019-05-12T02:11:25.954Z,0.00
2019-05-12T02:12:48.902Z,0.00
2019-05-12T02:13:27.691Z,0.00
2019-05-12T02:14:27.594Z,0.00
2019-05-12T02:15:27.829Z,0.00
2019-05-12T02:16:28.072Z,0.00
2019-05-12T02:17:28.189Z,0.00
2019-05-12T02:18:48.896Z,0.00
2019-05-12T02:19:28.131Z,0.00
2019-05-12T02:20:25.683Z,0.00
2019-05-12T02:21:27.792Z,0.00
2019-05-12T02:22:27.842Z,0.00
2019-05-12T02:23:28.047Z,0.00
2019-05-12T02:24:47.865Z,0.00
2019-05-12T02:25:25.560Z,0.00
2019-05-12T02:26:25.538Z,0.00
2019-05-12T02:27:25.515Z,0.00
2019-05-12T02:28:25.499Z,0.00
2019-05-12T02:29:25.465Z,0.00
2019-05-12T02:30:49.938Z,0.00
2019-05-12T02:31:29.080Z,0.00
2019-05-12T02:32:35.601Z,0.00
2019-05-12T02:33:25.377Z,0.00
2019-05-12T02:34:25.630Z,0.00
2019-05-12T02:35:25.339Z,0.00
2019-05-12T02:36:46.304Z,0.00
2019-05-12T02:37:26.249Z,0.00
2019-05-12T02:38:25.362Z,0.00
2019-05-12T02:39:25.226Z,0.00
2019-05-12T02:40:25.585Z,0.00
2019-05-12T02:41:25.949Z,0.00
2019-05-12T02:42:46.669Z,0.00
2019-05-12T02:43:25.130Z,0.00
2019-05-12T02:44:25.112Z,0.00
2019-05-12T02:45:25.746Z,0.00
2019-05-12T02:46:25.758Z,0.00
2019-05-12T02:47:25.030Z,0.00
2019-05-12T02:48:46.010Z,0.00
2019-05-12T02:49:24.987Z,0.00
2019-05-12T02:50:24.958Z,0.00
2019-05-12T02:51:25.166Z,0.00
2019-05-12T02:52:25.298Z,0.00
2019-05-12T02:53:25.184Z,0.00
2019-05-12T02:54:54.677Z,0.00
2019-05-12T02:55:25.740Z,0.00
2019-05-12T02:56:25.894Z,0.00
2019-05-12T02:57:25.709Z,0.00
2019-05-12T02:58:25.488Z,0.00
2019-05-12T02:59:25.446Z,0.00
2019-05-12T03:00:45.865Z,0.00
2019-05-12T03:01:24.715Z,0.00
2019-05-12T03:02:24.809Z,0.00
2019-05-12T03:03:25.281Z,0.00
2019-05-12T03:04:24.888Z,0.00
2019-05-12T03:05:24.972Z,0.00
2019-05-12T03:06:45.574Z,0.00
2019-05-12T03:07:25.434Z,0.00
2019-05-12T03:08:25.678Z,0.00
2019-05-12T03:09:24.610Z,0.00
2019-05-12T03:10:25.287Z,0.00
2019-05-12T03:11:24.872Z,0.00
2019-05-12T03:12:45.435Z,0.00
2019-05-12T03:13:25.460Z,4.00
2019-05-12T03:14:25.251Z,4.00
2019-05-12T03:15:25.212Z,4.00
2019-05-12T03:16:25.644Z,4.00
2019-05-12T03:17:25.359Z,0.00
2019-05-12T03:18:45.303Z,4.00
2019-05-12T03:19:25.236Z,4.00
2019-05-12T03:20:24.383Z,4.00
2019-05-12T03:21:24.676Z,4.00
2019-05-12T03:22:25.254Z,8.00
2019-05-12T03:23:24.941Z,8.00
2019-05-12T03:24:45.149Z,8.00
2019-05-12T03:25:29.074Z,8.00
2019-05-12T03:26:24.868Z,12.00
2019-05-12T03:27:25.607Z,12.00
2019-05-12T03:28:25.510Z,12.00
2019-05-12T03:29:25.081Z,16.00
2019-05-12T03:30:48.237Z,20.00
2019-05-12T03:31:30.946Z,20.00
2019-05-12T03:32:27.446Z,24.00
2019-05-12T03:33:33.545Z,28.00
2019-05-12T03:34:29.010Z,32.00
2019-05-12T03:35:32.724Z,36.00
2019-05-12T03:36:50.652Z,40.00
2019-05-12T03:37:30.894Z,44.00
2019-05-12T03:38:24.808Z,48.00
2019-05-12T03:39:25.015Z,52.00
2019-05-12T03:40:24.958Z,60.00
2019-05-12T03:41:25.068Z,64.00
2019-05-12T03:42:44.733Z,72.00
2019-05-12T03:43:24.390Z,76.00
2019-05-12T03:44:25.214Z,84.00
2019-05-12T03:45:25.175Z,84.00
2019-05-12T03:46:24.800Z,88.00
2019-05-12T03:47:25.134Z,92.00
2019-05-12T03:48:45.545Z,96.00
2019-05-12T03:49:24.528Z,96.00
2019-05-12T03:50:24.479Z,104.00
2019-05-12T03:51:25.130Z,108.00
2019-05-12T03:52:24.391Z,112.00
2019-05-12T03:53:24.646Z,124.00
2019-05-12T03:54:45.191Z,132.00
2019-05-12T03:55:34.362Z,140.00
2019-05-12T03:56:25.988Z,152.00
2019-05-12T03:57:25.352Z,160.00
2019-05-12T03:58:25.539Z,164.00
2019-05-12T03:59:25.542Z,176.00
2019-05-12T04:00:44.858Z,196.00
2019-05-12T04:01:25.485Z,208.00
2019-05-12T04:02:25.065Z,224.00
2019-05-12T04:03:24.747Z,236.00
2019-05-12T04:04:24.398Z,252.00
2019-05-12T04:05:24.316Z,272.00
2019-05-12T04:06:45.300Z,280.00
2019-05-12T04:07:24.332Z,284.00
2019-05-12T04:08:24.604Z,292.00
2019-05-12T04:09:24.598Z,312.00
2019-05-12T04:10:24.769Z,344.00
2019-05-12T04:11:24.948Z,360.00
2019-05-12T04:12:44.988Z,368.00
2019-05-12T04:13:26.180Z,368.00
2019-05-12T04:14:25.280Z,384.00
2019-05-12T04:15:25.602Z,404.00
2019-05-12T04:16:24.702Z,436.00
2019-05-12T04:17:24.340Z,452.00
2019-05-12T04:18:45.084Z,452.00
2019-05-12T04:19:24.958Z,468.00
2019-05-12T04:20:25.442Z,484.00
2019-05-12T04:21:24.368Z,480.00
2019-05-12T04:22:24.895Z,488.00
2019-05-12T04:23:24.778Z,496.00
2019-05-12T04:24:44.534Z,512.00
2019-05-12T04:25:24.971Z,524.00
2019-05-12T04:26:25.358Z,532.00
2019-05-12T04:27:25.203Z,536.00
2019-05-12T04:28:24.597Z,532.00
2019-05-12T04:29:25.028Z,548.00
2019-05-12T04:30:44.511Z,572.00
2019-05-12T04:31:24.872Z,588.00
2019-05-12T04:32:24.942Z,600.00
2019-05-12T04:33:25.407Z,608.00
2019-05-12T04:34:25.082Z,596.00
2019-05-12T04:35:25.197Z,596.00
2019-05-12T04:36:44.991Z,628.00
2019-05-12T04:37:24.917Z,652.00
2019-05-12T04:38:24.876Z,672.00
2019-05-12T04:39:25.102Z,704.00
2019-05-12T04:40:24.752Z,776.00
2019-05-12T04:41:25.630Z,800.00
2019-05-12T04:42:45.223Z,856.00
2019-05-12T04:43:25.349Z,912.00
2019-05-12T04:44:25.090Z,980.00
2019-05-12T04:45:25.241Z,1044.00
2019-05-12T04:46:25.130Z,1104.00
2019-05-12T04:47:25.072Z,1220.00
2019-05-12T04:48:45.347Z,1348.00
2019-05-12T04:49:24.981Z,1388.00
2019-05-12T04:50:24.512Z,1392.00
2019-05-12T04:51:24.957Z,1492.00
2019-05-12T04:52:24.868Z,1552.00
2019-05-12T04:53:25.089Z,1696.00
2019-05-12T04:54:44.450Z,1724.00
2019-05-12T04:55:25.325Z,1756.00
2019-05-12T04:56:24.862Z,1800.00
2019-05-12T04:57:25.195Z,1848.00
2019-05-12T04:58:25.290Z,1952.00
2019-05-12T04:59:24.604Z,2020.00
2019-05-12T05:00:44.779Z,2120.00
2019-05-12T05:01:25.032Z,2284.00
2019-05-12T05:02:25.009Z,2232.00
2019-05-12T05:03:24.561Z,2132.00
2019-05-12T05:04:24.451Z,2200.00
2019-05-12T05:05:24.652Z,2236.00
2019-05-12T05:06:44.835Z,2260.00
2019-05-12T05:07:24.416Z,2512.00
2019-05-12T05:08:24.252Z,2568.00
2019-05-12T05:09:24.397Z,2664.00
2019-05-12T05:10:24.726Z,2604.00
2019-05-12T05:11:21.673Z,2568.00
2019-05-12T05:12:44.965Z,2804.00
2019-05-12T05:13:24.285Z,2776.00
2019-05-12T05:14:24.545Z,2740.00
2019-05-12T05:15:21.590Z,2856.00
2019-05-12T05:16:24.627Z,3108.00
2019-05-12T05:17:24.201Z,3380.00
2019-05-12T05:18:43.919Z,3460.00
2019-05-12T05:19:21.500Z,3492.00
2019-05-12T05:20:23.802Z,3476.00
2019-05-12T05:21:23.421Z,3748.00
2019-05-12T05:22:21.427Z,3840.00
2019-05-12T05:23:21.401Z,4052.00
2019-05-12T05:24:44.363Z,3912.00
2019-05-12T05:25:23.508Z,4268.00
2019-05-12T05:26:27.641Z,4580.00
2019-05-12T05:27:21.308Z,4296.00
2019-05-12T05:28:23.513Z,4372.00
2019-05-12T05:29:21.295Z,4704.00
2019-05-12T05:30:44.077Z,4532.00
2019-05-12T05:31:21.225Z,4676.00
2019-05-12T05:32:23.178Z,5488.00
2019-05-12T05:33:23.622Z,5656.00
2019-05-12T05:34:23.418Z,5352.00
2019-05-12T05:35:21.136Z,5468.00
2019-05-12T05:36:43.344Z,6548.00
2019-05-12T05:37:21.087Z,6344.00
2019-05-12T05:38:21.062Z,5932.00
2019-05-12T05:39:21.041Z,6420.00
2019-05-12T05:40:28.383Z,6708.00
2019-05-12T05:41:20.992Z,6556.00
2019-05-12T05:42:43.963Z,6492.00
2019-05-12T05:43:20.955Z,7740.00
2019-05-12T05:44:20.932Z,7492.00
2019-05-12T05:45:24.189Z,7036.00
2019-05-12T05:46:20.885Z,7592.00
2019-05-12T05:47:25.653Z,7348.00
2019-05-12T05:48:43.927Z,6544.00
2019-05-12T05:49:20.820Z,6252.00
2019-05-12T05:50:24.858Z,6576.00
2019-05-12T05:51:20.778Z,6676.00
2019-05-12T05:52:26.552Z,7052.00
2019-05-12T05:53:20.723Z,7340.00
2019-05-12T05:54:43.881Z,7332.00
2019-05-12T05:55:20.694Z,6692.00
2019-05-12T05:56:20.665Z,6288.00
2019-05-12T05:57:25.837Z,7032.00
2019-05-12T05:58:20.641Z,7556.00
2019-05-12T05:59:21.924Z,7404.00
2019-05-12T06:00:43.450Z,7956.00
2019-05-12T06:01:20.555Z,8436.00
2019-05-12T06:02:25.391Z,8692.00
2019-05-12T06:03:27.734Z,8712.00
2019-05-12T06:04:20.495Z,9168.00
2019-05-12T06:05:26.455Z,9032.00
2019-05-12T06:06:42.708Z,9792.00
2019-05-12T06:07:23.830Z,10008.00
2019-05-12T06:08:21.000Z,9676.00
2019-05-12T06:09:20.378Z,9908.00
2019-05-12T06:10:20.365Z,9844.00
2019-05-12T06:11:23.813Z,10620.00
2019-05-12T06:12:48.644Z,10948.00
2019-05-12T06:13:21.177Z,11156.00
2019-05-12T06:14:20.276Z,10940.00
2019-05-12T06:15:20.257Z,10592.00
2019-05-12T06:16:22.054Z,10780.00
2019-05-12T06:17:20.215Z,11028.00
2019-05-12T06:18:43.740Z,10424.00
2019-05-12T06:19:23.148Z,10580.00
2019-05-12T06:20:20.148Z,10180.00
2019-05-12T06:21:20.124Z,10268.00
2019-05-12T06:22:20.102Z,9632.00
2019-05-12T06:23:20.117Z,9512.00
2019-05-12T06:24:41.086Z,9584.00
2019-05-12T06:25:20.045Z,10336.00
2019-05-12T06:26:21.125Z,10572.00
2019-05-12T06:27:21.035Z,10328.00
2019-05-12T06:28:19.983Z,10056.00
2019-05-12T06:29:21.907Z,9984.00
2019-05-12T06:30:47.095Z,10252.00
2019-05-12T06:31:28.269Z,10616.00
2019-05-12T06:32:19.891Z,10560.00
2019-05-12T06:33:24.791Z,10344.00
2019-05-12T06:34:21.064Z,9968.00
2019-05-12T06:35:19.835Z,10004.00
2019-05-12T06:36:40.809Z,9704.00
2019-05-12T06:37:19.797Z,9996.00
2019-05-12T06:38:19.770Z,10500.00
2019-05-12T06:39:20.868Z,11016.00
2019-05-12T06:40:19.730Z,11264.00
2019-05-12T06:41:21.022Z,11672.00
2019-05-12T06:42:40.694Z,12636.00
2019-05-12T06:43:19.662Z,12472.00
2019-05-12T06:44:19.833Z,12440.00
2019-05-12T06:45:19.624Z,12012.00
2019-05-12T06:46:21.160Z,12160.00
2019-05-12T06:47:19.577Z,11792.00
2019-05-12T06:48:42.361Z,12344.00
2019-05-12T06:49:19.541Z,12844.00
2019-05-12T06:50:19.519Z,13052.00
2019-05-12T06:51:25.251Z,13120.00
2019-05-12T06:52:19.477Z,13268.00
2019-05-12T06:53:25.464Z,12624.00
2019-05-12T06:54:44.615Z,12860.00
2019-05-12T06:55:19.423Z,13924.00
2019-05-12T06:56:19.957Z,13696.00
2019-05-12T06:57:25.339Z,14384.00
2019-05-12T06:58:25.950Z,12924.00
2019-05-12T06:59:19.359Z,14060.00
2019-05-12T07:00:40.314Z,13788.00
2019-05-12T07:01:19.677Z,13340.00
2019-05-12T07:02:19.286Z,12916.00
2019-05-12T07:03:24.395Z,12464.00
2019-05-12T07:04:21.344Z,12436.00
2019-05-12T07:05:19.209Z,12460.00
2019-05-12T07:06:40.190Z,13332.00
2019-05-12T07:07:19.165Z,13260.00
2019-05-12T07:08:26.292Z,12008.00
2019-05-12T07:09:25.112Z,10212.00
2019-05-12T07:10:35.622Z,9884.00
2019-05-12T07:11:19.091Z,9456.00
2019-05-12T07:12:56.000Z,9716.00
2019-05-12T07:13:23.034Z,10424.00
2019-05-12T07:14:22.854Z,10152.00
2019-05-12T07:15:19.041Z,9980.00
2019-05-12T07:16:22.867Z,10636.00
2019-05-12T07:17:18.994Z,9556.00
2019-05-12T07:18:39.953Z,8764.00
2019-05-12T07:19:22.851Z,8460.00
2019-05-12T07:20:18.906Z,8456.00
2019-05-12T07:21:21.050Z,8708.00
2019-05-12T07:22:22.522Z,9120.00
2019-05-12T07:23:19.851Z,9532.00
2019-05-12T07:24:41.094Z,8804.00
2019-05-12T07:25:22.894Z,9016.00
2019-05-12T07:26:19.627Z,9068.00
2019-05-12T07:27:32.234Z,8972.00
2019-05-12T07:28:18.743Z,9632.00
2019-05-12T07:29:18.737Z,10252.00
2019-05-12T07:30:39.705Z,9984.00
2019-05-12T07:31:18.678Z,10284.00
2019-05-12T07:32:21.700Z,10252.00
2019-05-12T07:33:18.635Z,10952.00
2019-05-12T07:34:18.615Z,11864.00
2019-05-12T07:35:18.596Z,11648.00
2019-05-12T07:36:39.585Z,11600.00
2019-05-12T07:37:18.552Z,12200.00
2019-05-12T07:38:21.459Z,13772.00
2019-05-12T07:39:18.552Z,14136.00
2019-05-12T07:40:19.056Z,13044.00
2019-05-12T07:41:18.475Z,13688.00
2019-05-12T07:42:39.758Z,12768.00
2019-05-12T07:43:20.511Z,11536.00
2019-05-12T07:44:18.415Z,11608.00
2019-05-12T07:45:22.308Z,12092.00
2019-05-12T07:46:18.372Z,10652.00
2019-05-12T07:47:19.277Z,10268.00
2019-05-12T07:48:40.415Z,10556.00
2019-05-12T07:49:22.036Z,9364.00
2019-05-12T07:50:20.656Z,8540.00
2019-05-12T07:51:18.269Z,9776.00
2019-05-12T07:52:18.244Z,10708.00
2019-05-12T07:53:18.228Z,12528.00
2019-05-12T07:54:39.545Z,15252.00
2019-05-12T07:55:18.215Z,15572.00
2019-05-12T07:56:22.914Z,15288.00
2019-05-12T07:57:18.150Z,16256.00
2019-05-12T07:58:19.390Z,15928.00
2019-05-12T07:59:18.101Z,14784.00
2019-05-12T08:00:39.078Z,13928.00
2019-05-12T08:01:18.072Z,14820.00
2019-05-12T08:02:23.256Z,14776.00
2019-05-12T08:03:21.296Z,14156.00
2019-05-12T08:04:18.018Z,13168.00
2019-05-12T08:05:20.218Z,12280.00
2019-05-12T08:06:41.821Z,12928.00
2019-05-12T08:07:19.758Z,12460.00
2019-05-12T08:08:17.928Z,11960.00
2019-05-12T08:09:17.902Z,12116.00
2019-05-12T08:10:19.952Z,12984.00
2019-05-12T08:11:17.864Z,13972.00
2019-05-12T08:12:38.852Z,14000.00
2019-05-12T08:13:18.729Z,14328.00
2019-05-12T08:14:25.828Z,14268.00
2019-05-12T08:15:17.789Z,15768.00
2019-05-12T08:16:19.485Z,15384.00
2019-05-12T08:17:19.572Z,13712.00
2019-05-12T08:18:40.923Z,13776.00
2019-05-12T08:19:23.744Z,14344.00
2019-05-12T08:20:17.690Z,16096.00
2019-05-12T08:21:17.677Z,17280.00
2019-05-12T08:22:18.865Z,19008.00
2019-05-12T08:23:17.626Z,20928.00
2019-05-12T08:24:42.986Z,21216.00
2019-05-12T08:25:18.823Z,20064.00
2019-05-12T08:26:18.621Z,18368.00
2019-05-12T08:27:17.552Z,15956.00
2019-05-12T08:28:19.246Z,16036.00
2019-05-12T08:29:21.438Z,17184.00
2019-05-12T08:30:47.468Z,15884.00
2019-05-12T08:31:17.476Z,15448.00
2019-05-12T08:32:20.034Z,15172.00
2019-05-12T08:33:17.443Z,16612.00
2019-05-12T08:34:17.423Z,17600.00
2019-05-12T08:35:25.437Z,17856.00
2019-05-12T08:36:38.378Z,16700.00
2019-05-12T08:37:17.366Z,15824.00
2019-05-12T08:38:17.349Z,16776.00
2019-05-12T08:39:22.616Z,15608.00
2019-05-12T08:40:17.307Z,14404.00
2019-05-12T08:41:17.299Z,16120.00
2019-05-12T08:42:38.288Z,17184.00
2019-05-12T08:43:17.251Z,16352.00
2019-05-12T08:44:17.683Z,16456.00
2019-05-12T08:45:25.702Z,16572.00
2019-05-12T08:46:17.193Z,16440.00
2019-05-12T08:47:17.170Z,16308.00
2019-05-12T08:48:38.167Z,16148.00
2019-05-12T08:49:17.150Z,17248.00
2019-05-12T08:50:17.123Z,17216.00
2019-05-12T08:51:20.070Z,15992.00
2019-05-12T08:52:17.085Z,14304.00
2019-05-12T08:53:20.695Z,13628.00
2019-05-12T08:54:39.674Z,13208.00
2019-05-12T08:55:17.078Z,12960.00
2019-05-12T08:56:19.317Z,12552.00
2019-05-12T08:57:16.989Z,12672.00
2019-05-12T08:58:30.307Z,13460.00
2019-05-12T08:59:18.450Z,13296.00
2019-05-12T09:00:39.535Z,13428.00
2019-05-12T09:01:20.468Z,13168.00
2019-05-12T09:02:16.916Z,13548.00
2019-05-12T09:03:20.389Z,13980.00
2019-05-12T09:04:18.379Z,14080.00
2019-05-12T09:05:16.840Z,12632.00
2019-05-12T09:06:37.823Z,12792.00
2019-05-12T09:07:16.906Z,13416.00
2019-05-12T09:08:16.782Z,13968.00
2019-05-12T09:09:16.765Z,14564.00
2019-05-12T09:10:16.743Z,15068.00
2019-05-12T09:11:16.724Z,14944.00
2019-05-12T09:12:37.705Z,16676.00
2019-05-12T09:13:16.695Z,19040.00
2019-05-12T09:14:16.657Z,19072.00
2019-05-12T09:15:16.642Z,18816.00
2019-05-12T09:16:16.625Z,21280.00
2019-05-12T09:17:16.618Z,20864.00
2019-05-12T09:18:39.391Z,19584.00
2019-05-12T09:19:23.556Z,20672.00
2019-05-12T09:20:16.555Z,21312.00
2019-05-12T09:21:16.539Z,20896.00
2019-05-12T09:22:20.697Z,19904.00
2019-05-12T09:23:16.500Z,18976.00
2019-05-12T09:24:37.483Z,25888.00
2019-05-12T09:25:16.462Z,22912.00
2019-05-12T09:26:18.565Z,29344.00
2019-05-12T09:27:16.426Z,33504.00
2019-05-12T09:28:16.407Z,27904.00
2019-05-12T09:29:16.410Z,23200.00
2019-05-12T09:30:39.968Z,22656.00
2019-05-12T09:31:19.583Z,27840.00
2019-05-12T09:32:16.341Z,28128.00
2019-05-12T09:33:16.459Z,83424.00
2019-05-12T09:34:16.636Z,27520.00
2019-05-12T09:35:16.284Z,117952.00
2019-05-12T09:36:37.298Z,29856.00
2019-05-12T09:37:16.268Z,37248.00
2019-05-12T09:38:21.295Z,46944.00
2019-05-12T09:39:16.217Z,80032.00
2019-05-12T09:40:20.603Z,33504.00
2019-05-12T09:41:16.189Z,29856.00
2019-05-12T09:42:37.180Z,124960.00
2019-05-12T09:43:16.147Z,132448.00
2019-05-12T09:44:20.281Z,30016.00
2019-05-12T09:45:16.124Z,21920.00
2019-05-12T09:46:16.100Z,24608.00
2019-05-12T09:47:23.018Z,49184.00
2019-05-12T09:48:39.188Z,39360.00
2019-05-12T09:49:16.051Z,56000.00
2019-05-12T09:50:20.112Z,111104.00
2019-05-12T09:51:17.278Z,64928.00
2019-05-12T09:52:22.715Z,95648.00
2019-05-12T09:53:15.991Z,115296.00
2019-05-12T09:54:40.901Z,37728.00
2019-05-12T09:55:15.963Z,117184.00
2019-05-12T09:56:15.944Z,115328.00
2019-05-12T09:57:15.922Z,113952.00
2019-05-12T09:58:22.927Z,110304.00
2019-05-12T09:59:21.491Z,112064.00
2019-05-12T10:00:37.784Z,111104.00
2019-05-12T10:01:15.921Z,121184.00
2019-05-12T10:02:20.595Z,128640.00
2019-05-12T10:03:15.832Z,114880.00
2019-05-12T10:04:19.473Z,118496.00
2019-05-12T10:05:15.796Z,32864.00
2019-05-12T10:06:36.791Z,58464.00
2019-05-12T10:07:15.819Z,22112.00
2019-05-12T10:08:15.750Z,17664.00
2019-05-12T10:09:19.921Z,18656.00
2019-05-12T10:10:15.727Z,82720.00
2019-05-12T10:11:19.489Z,21312.00
2019-05-12T10:12:45.031Z,35264.00
2019-05-12T10:13:20.224Z,118112.00
2019-05-12T10:14:15.702Z,127200.00
2019-05-12T10:15:18.626Z,30336.00
2019-05-12T10:16:15.650Z,34080.00
2019-05-12T10:17:20.333Z,84768.00
2019-05-12T10:18:36.615Z,112384.00
2019-05-12T10:19:15.599Z,113824.00
2019-05-12T10:20:15.580Z,31456.00
2019-05-12T10:21:17.494Z,24608.00
2019-05-12T10:22:15.551Z,24928.00
2019-05-12T10:23:18.889Z,24672.00
2019-05-12T10:24:41.395Z,26912.00
2019-05-12T10:25:15.506Z,25344.00
2019-05-12T10:26:15.490Z,21152.00
2019-05-12T10:27:15.481Z,24896.00
2019-05-12T10:28:16.314Z,31264.00
2019-05-12T10:29:20.412Z,19136.00
2019-05-12T10:30:36.461Z,119328.00
2019-05-12T10:31:18.457Z,117216.00
2019-05-12T10:32:15.413Z,118528.00
2019-05-12T10:33:15.391Z,121184.00
2019-05-12T10:34:15.379Z,119712.00
2019-05-12T10:35:21.064Z,115968.00
2019-05-12T10:36:39.050Z,119072.00
2019-05-12T10:37:19.260Z,36512.00
2019-05-12T10:38:15.326Z,45088.00
2019-05-12T10:39:15.319Z,20768.00
2019-05-12T10:40:15.297Z,18624.00
2019-05-12T10:41:15.297Z,52672.00
2019-05-12T10:42:39.889Z,21376.00
2019-05-12T10:43:15.271Z,18240.00
2019-05-12T10:44:15.255Z,17824.00
2019-05-12T10:45:16.939Z,22464.00
2019-05-12T10:46:18.503Z,27200.00
2019-05-12T10:47:15.223Z,21344.00
2019-05-12T10:48:36.210Z,126656.00
2019-05-12T10:49:15.197Z,129696.00
2019-05-12T10:50:15.212Z,128448.00
2019-05-12T10:51:15.179Z,132928.00
2019-05-12T10:52:15.154Z,138880.00
2019-05-12T10:53:15.942Z,31584.00
2019-05-12T10:54:36.139Z,28160.00
2019-05-12T10:55:15.125Z,32544.00
2019-05-12T10:56:15.114Z,26368.00
2019-05-12T10:57:15.106Z,81440.00
2019-05-12T10:58:15.089Z,31392.00
2019-05-12T10:59:29.144Z,24864.00
2019-05-12T11:00:36.065Z,29184.00
2019-05-12T11:01:15.051Z,57440.00
2019-05-12T11:02:15.076Z,58368.00
2019-05-12T11:03:15.641Z,23264.00
2019-05-12T11:04:15.024Z,145312.00
2019-05-12T11:05:21.097Z,133696.00
2019-05-12T11:06:39.700Z,124768.00
2019-05-12T11:07:14.994Z,132416.00
2019-05-12T11:08:14.986Z,130176.00
2019-05-12T11:09:14.971Z,132704.00
2019-05-12T11:10:19.668Z,134720.00
2019-05-12T11:11:15.132Z,24768.00
2019-05-12T11:12:35.944Z,15620.00
2019-05-12T11:13:17.580Z,18352.00
2019-05-12T11:14:14.922Z,137184.00
2019-05-12T11:15:14.919Z,136704.00
2019-05-12T11:16:16.920Z,136000.00
2019-05-12T11:17:14.897Z,74176.00
2019-05-12T11:18:35.893Z,37376.00
2019-05-12T11:19:14.880Z,34112.00
2019-05-12T11:20:14.884Z,141600.00
2019-05-12T11:21:15.484Z,64160.00
2019-05-12T11:22:14.855Z,45536.00
2019-05-12T11:23:14.848Z,133088.00
2019-05-12T11:24:35.870Z,25920.00
2019-05-12T11:25:14.835Z,26880.00
2019-05-12T11:26:14.826Z,120672.00
2019-05-12T11:27:14.817Z,24544.00
2019-05-12T11:28:14.813Z,132448.00
2019-05-12T11:29:14.808Z,131904.00
2019-05-12T11:30:35.806Z,131264.00
2019-05-12T11:31:14.790Z,130400.00
2019-05-12T11:32:17.514Z,128192.00
2019-05-12T11:33:14.772Z,124800.00
2019-05-12T11:34:14.771Z,123936.00
2019-05-12T11:35:14.792Z,33536.00
2019-05-12T11:36:35.765Z,68064.00
2019-05-12T11:37:14.745Z,62016.00
2019-05-12T11:38:14.742Z,121312.00
2019-05-12T11:39:14.736Z,117440.00
2019-05-12T11:40:14.750Z,120896.00
2019-05-12T11:41:16.207Z,124800.00
2019-05-12T11:42:35.803Z,124672.00
2019-05-12T11:43:14.717Z,122752.00
2019-05-12T11:44:14.707Z,128128.00
2019-05-12T11:45:14.701Z,49952.00
2019-05-12T11:46:14.693Z,37440.00
2019-05-12T11:47:23.930Z,25856.00
2019-05-12T11:48:40.368Z,17128.00
2019-05-12T11:49:14.683Z,129920.00
2019-05-12T11:50:14.688Z,18848.00
2019-05-12T11:51:14.669Z,54816.00
2019-05-12T11:52:18.929Z,37856.00
2019-05-12T11:53:14.659Z,116608.00
2019-05-12T11:54:35.659Z,118720.00
2019-05-12T11:55:14.643Z,114240.00
2019-05-12T11:56:14.636Z,109600.00
2019-05-12T11:57:14.630Z,106304.00
2019-05-12T11:58:14.635Z,111072.00
2019-05-12T11:59:14.624Z,118368.00
2019-05-12T12:00:35.621Z,94016.00
2019-05-12T12:01:14.614Z,29952.00
2019-05-12T12:02:14.630Z,115360.00
2019-05-12T12:03:17.865Z,69184.00
2019-05-12T12:04:14.597Z,61344.00
2019-05-12T12:05:14.588Z,107200.00
2019-05-12T12:06:35.595Z,82464.00
2019-05-12T12:07:14.587Z,52768.00
2019-05-12T12:08:14.655Z,43744.00
2019-05-12T12:09:18.475Z,41664.00
2019-05-12T12:10:14.577Z,41184.00
2019-05-12T12:11:18.590Z,42112.00
2019-05-12T12:12:39.561Z,41536.00
2019-05-12T12:13:19.277Z,40800.00
2019-05-12T12:14:14.549Z,39200.00
2019-05-12T12:15:14.549Z,47936.00